Time;durP1;ratioP1;P1;durP2;ratioP2;P2;SDS_P1;SDS_P2;PMS_P1;PMS_P2;Temp;Humidity;BMP_temperature;BMP_pressure;BME280_temperature;BME280_humidity;BME280_pressure;Samples;Min_cycle;Max_cycle;Signal;HPM_P1;HPM_P2
2022/04/29 00:00:09;;;;;;;7.93;6.67;;;;;;;16.30;100.00;99875.75;5010708;28;20589;-58
2022/04/29 00:02:37;;;;;;;9.00;6.63;;;;;;;16.33;100.00;99883.47;5010674;28;20225;-58
2022/04/29 00:05:04;;;;;;;7.20;6.70;;;;;;;16.34;100.00;99871.22;5010778;28;20576;-56
2022/04/29 00:07:31;;;;;;;8.50;7.60;;;;;;;16.30;100.00;99873.13;5010945;28;20300;-56
2022/04/29 00:09:58;;;;;;;9.50;8.50;;;;;;;15.92;100.00;99821.66;5010712;28;20288;-56
2022/04/29 00:12:25;;;;;;;12.77;9.13;;;;;;;16.08;100.00;99858.47;5010443;28;20230;-55
2022/04/29 00:14:55;;;;;;;10.77;8.80;;;;;;;16.04;100.00;99868.22;5011028;28;20289;-56
2022/04/29 00:17:22;;;;;;;15.17;9.57;;;;;;;15.84;100.00;99849.97;5044916;28;20203;-56
2022/04/29 00:19:48;;;;;;;9.97;8.97;;;;;;;15.89;100.00;99872.41;5050006;28;20196;-57
2022/04/29 00:22:15;;;;;;;10.70;9.70;;;;;;;15.83;100.00;99864.81;5049863;28;20206;-56
2022/04/29 00:24:42;;;;;;;10.70;9.70;;;;;;;15.84;100.00;99860.44;5050182;28;20308;-58
2022/04/29 00:27:09;;;;;;;10.57;9.57;;;;;;;15.74;100.00;99854.75;5049870;28;20199;-57
2022/04/29 00:29:36;;;;;;;11.60;10.50;;;;;;;15.71;100.00;99843.56;5049789;28;20197;-58
2022/04/29 00:32:06;;;;;;;12.17;10.77;;;;;;;15.58;100.00;99827.56;5050183;28;20197;-57
2022/04/29 00:34:32;;;;;;;13.20;10.00;;;;;;;15.67;100.00;99844.66;5049834;28;20225;-58
2022/04/29 00:36:59;;;;;;;11.27;10.27;;;;;;;15.67;100.00;99847.25;5049954;28;20562;-58
2022/04/29 00:39:26;;;;;;;11.73;10.53;;;;;;;15.61;100.00;99843.97;5049730;28;20203;-58
2022/04/29 00:41:53;;;;;;;14.20;11.27;;;;;;;15.42;100.00;99830.00;5049790;28;20200;-58
2022/04/29 00:44:20;;;;;;;12.57;11.13;;;;;;;15.48;100.00;99853.25;5049846;28;20215;-55
2022/04/29 00:46:48;;;;;;;12.87;11.67;;;;;;;15.51;100.00;99853.13;5049947;28;20235;-55
2022/04/29 00:49:18;;;;;;;13.50;12.30;;;;;;;15.47;100.00;99850.69;5049597;28;20697;-59
2022/04/29 00:51:48;;;;;;;12.63;11.43;;;;;;;15.42;100.00;99840.44;5049981;28;20200;-55
2022/04/29 00:54:19;;;;;;;15.80;12.10;;;;;;;15.53;100.00;99840.84;5049323;28;20224;-59
2022/04/29 00:56:48;;;;;;;13.60;12.23;;;;;;;15.36;100.00;99839.84;5049419;28;20192;-59
2022/04/29 00:59:20;;;;;;;12.63;11.43;;;;;;;15.37;100.00;99828.47;5049471;28;20197;-59
2022/04/29 01:01:48;;;;;;;13.63;11.60;;;;;;;15.33;100.00;99833.00;5049590;28;20209;-59
2022/04/29 01:04:23;;;;;;;17.77;13.00;;;;;;;15.26;100.00;99826.31;5048141;28;20689;-60
2022/04/29 01:06:49;;;;;;;13.57;12.17;;;;;;;15.27;100.00;99828.88;5049416;28;20198;-58
2022/04/29 01:09:17;;;;;;;13.83;11.50;;;;;;;15.24;100.00;99826.38;5049120;28;20200;-59
2022/04/29 01:11:44;;;;;;;13.60;12.23;;;;;;;15.09;100.00;99836.66;5049669;28;20678;-58
2022/04/29 01:14:11;;;;;;;15.20;13.00;;;;;;;15.06;100.00;99837.63;5049016;28;20229;-59
2022/04/29 01:16:41;;;;;;;17.27;12.83;;;;;;;15.08;100.00;99838.44;5049501;28;20598;-57
2022/04/29 01:19:08;;;;;;;14.20;12.63;;;;;;;15.02;100.00;99838.66;5049985;28;20272;-56
2022/04/29 01:21:36;;;;;;;16.70;12.63;;;;;;;15.01;100.00;99830.91;5049325;28;20200;-56
2022/04/29 01:24:05;;;;;;;15.37;13.70;;;;;;;15.06;100.00;99829.78;5049065;28;20726;-57
2022/04/29 01:26:32;;;;;;;19.20;13.43;;;;;;;15.11;100.00;99833.06;5048892;28;20285;-56
2022/04/29 01:29:00;;;;;;;14.87;13.27;;;;;;;15.04;100.00;99831.63;5049024;28;20299;-55
2022/04/29 01:31:29;;;;;;;17.47;13.27;;;;;;;15.07;100.00;99826.25;5049108;28;20595;-54
2022/04/29 01:33:57;;;;;;;13.97;12.63;;;;;;;14.95;100.00;99810.25;5048875;28;20223;-54
2022/04/29 01:36:24;;;;;;;15.20;13.60;;;;;;;15.08;100.00;99827.13;5048759;28;20197;-53
2022/04/29 01:38:50;;;;;;;13.73;12.37;;;;;;;15.10;100.00;99830.53;5049102;28;20207;-53
2022/04/29 01:41:19;;;;;;;14.30;12.90;;;;;;;14.97;100.00;99813.66;5048728;28;20207;-54
2022/04/29 01:43:46;;;;;;;14.53;12.97;;;;;;;14.98;100.00;99820.56;5048953;28;20227;-54
2022/04/29 01:46:13;;;;;;;14.73;13.17;;;;;;;15.02;100.00;99817.75;5048624;28;20213;-57
2022/04/29 01:48:40;;;;;;;15.17;13.63;;;;;;;14.98;100.00;99818.81;5048801;28;20377;-57
2022/04/29 01:51:07;;;;;;;15.03;13.53;;;;;;;15.01;100.00;99820.47;5048698;28;20201;-57
2022/04/29 01:53:34;;;;;;;14.67;13.07;;;;;;;15.00;100.00;99811.75;5048792;28;20702;-55
2022/04/29 01:56:01;;;;;;;13.90;12.50;;;;;;;14.99;100.00;99814.44;5048491;28;20291;-55
2022/04/29 01:58:29;;;;;;;14.90;13.37;;;;;;;14.96;100.00;99804.94;5048533;28;20196;-54
2022/04/29 02:00:56;;;;;;;15.77;13.70;;;;;;;14.92;100.00;99818.19;5048549;28;20196;-57
2022/04/29 02:03:23;;;;;;;14.57;13.13;;;;;;;14.92;100.00;99812.97;5048335;28;20197;-56
2022/04/29 02:05:51;;;;;;;14.97;12.20;;;;;;;14.92;100.00;99810.38;5048714;28;20529;-57
2022/04/29 02:08:17;;;;;;;15.40;13.17;;;;;;;14.83;100.00;99812.44;5048460;28;20219;-58
2022/04/29 02:10:44;;;;;;;14.83;13.23;;;;;;;14.85;100.00;99810.63;5048439;27;20196;-58
2022/04/29 02:13:13;;;;;;;19.00;13.80;;;;;;;14.86;100.00;99817.56;5048276;28;20287;-58
2022/04/29 02:15:41;;;;;;;14.37;12.80;;;;;;;14.88;100.00;99817.50;5047938;28;20564;-57
2022/04/29 02:18:08;;;;;;;14.43;12.97;;;;;;;14.87;100.00;99813.19;5048231;28;20235;-56
2022/04/29 02:20:35;;;;;;;14.37;12.97;;;;;;;14.90;100.00;99813.03;5048395;28;20193;-55
2022/04/29 02:23:02;;;;;;;15.80;13.27;;;;;;;14.90;100.00;99819.09;5048028;28;20192;-55
2022/04/29 02:25:29;;;;;;;14.27;12.87;;;;;;;14.90;100.00;99813.88;5048109;28;20735;-57
2022/04/29 02:27:56;;;;;;;14.03;12.67;;;;;;;14.95;100.00;99815.47;5048147;28;20193;-57
2022/04/29 02:30:23;;;;;;;14.70;13.20;;;;;;;14.92;100.00;99824.28;5047916;28;20785;-59
2022/04/29 02:32:51;;;;;;;14.23;12.73;;;;;;;14.94;100.00;99819.84;5048158;28;20192;-59
2022/04/29 02:35:18;;;;;;;19.23;14.13;;;;;;;14.90;100.00;99831.31;5047689;28;20231;-58
2022/04/29 02:37:45;;;;;;;14.30;12.90;;;;;;;14.99;100.00;99820.50;5048090;28;20672;-58
2022/04/29 02:40:12;;;;;;;16.30;13.23;;;;;;;14.88;100.00;99820.97;5048037;28;20787;-58
2022/04/29 02:42:39;;;;;;;14.30;12.70;;;;;;;14.88;100.00;99831.41;5047864;28;20295;-58
2022/04/29 02:45:08;;;;;;;20.90;13.33;;;;;;;14.89;100.00;99830.50;5047574;28;20235;-59
2022/04/29 02:47:35;;;;;;;17.03;13.40;;;;;;;14.94;100.00;99834.69;5047830;28;20284;-58
2022/04/29 02:50:03;;;;;;;13.90;12.50;;;;;;;14.93;100.00;99838.19;5047699;28;20193;-58
2022/04/29 02:52:30;;;;;;;17.13;13.40;;;;;;;14.87;100.00;99848.00;5047876;28;20197;-58
2022/04/29 02:54:57;;;;;;;15.80;12.97;;;;;;;14.85;100.00;99848.97;5047739;28;20316;-59
2022/04/29 02:57:24;;;;;;;15.73;12.73;;;;;;;14.96;100.00;99853.75;5047591;28;20201;-54
2022/04/29 02:59:51;;;;;;;15.33;12.13;;;;;;;15.05;100.00;99854.22;5047574;28;20196;-54
2022/04/29 03:02:18;;;;;;;14.43;12.83;;;;;;;15.00;100.00;99850.13;5047664;28;20249;-54
2022/04/29 03:04:45;;;;;;;15.37;12.67;;;;;;;14.94;100.00;99851.22;5047657;28;20261;-54
2022/04/29 03:07:13;;;;;;;14.30;12.53;;;;;;;14.93;100.00;99859.97;5039706;28;20556;-55
2022/04/29 03:09:40;;;;;;;16.77;13.93;;;;;;;14.88;100.00;99856.69;5027530;28;20197;-55
2022/04/29 03:12:12;;;;;;;19.90;13.33;;;;;;;14.87;100.00;99855.84;5027271;28;20201;-56
2022/04/29 03:14:39;;;;;;;15.67;14.00;;;;;;;14.82;100.00;99854.31;5027674;28;20727;-55
2022/04/29 03:18:17;;;;;;;14.97;13.53;;;;;;;14.81;100.00;99863.06;5027432;28;20696;-54
2022/04/29 03:19:53;;;;;;;16.50;14.33;;;;;;;14.68;100.00;99843.56;5019384;28;20200;-54
2022/04/29 03:22:21;;;;;;;18.87;14.00;;;;;;;14.80;100.00;99869.22;5016047;28;20746;-55
2022/04/29 03:24:48;;;;;;;16.53;14.83;;;;;;;14.69;100.00;99847.88;5014805;28;20234;-53
2022/04/29 03:27:15;;;;;;;15.77;13.27;;;;;;;14.80;100.00;99863.97;5014955;28;20220;-55
2022/04/29 03:29:42;;;;;;;15.37;13.77;;;;;;;14.83;100.00;99864.72;5015662;28;20211;-54
2022/04/29 03:32:10;;;;;;;15.57;13.97;;;;;;;14.78;100.00;99858.84;5016934;28;20740;-54
2022/04/29 03:34:37;;;;;;;15.03;13.47;;;;;;;14.83;100.00;99853.41;5015433;28;20218;-54
2022/04/29 03:37:05;;;;;;;15.23;13.63;;;;;;;14.82;100.00;99867.38;5016695;28;20196;-56
2022/04/29 03:39:33;;;;;;;15.10;13.40;;;;;;;14.84;100.00;99869.03;5009809;28;20719;-58
2022/04/29 03:42:00;;;;;;;15.77;14.20;;;;;;;14.92;100.00;99870.47;5011276;28;20649;-58
2022/04/29 03:44:27;;;;;;;16.90;13.17;;;;;;;14.84;100.00;99860.34;5019330;28;20218;-57
2022/04/29 03:46:54;;;;;;;16.27;13.27;;;;;;;14.98;100.00;99868.47;5014325;28;20213;-57
2022/04/29 03:49:39;;;;;;;15.90;13.20;;;;;;;15.11;100.00;99874.91;5018697;28;20217;-57
2022/04/29 03:52:06;;;;;;;15.30;12.33;;;;;;;15.13;100.00;99874.81;5014654;28;20293;-57
2022/04/29 03:54:35;;;;;;;14.00;12.57;;;;;;;15.20;100.00;99869.28;5015060;28;20289;-57
2022/04/29 03:57:02;;;;;;;14.03;12.73;;;;;;;15.29;100.00;99872.41;5015490;28;20214;-54
2022/04/29 03:59:29;;;;;;;13.83;12.43;;;;;;;15.36;100.00;99876.47;5023589;28;20316;-55
2022/04/29 04:01:55;;;;;;;14.53;12.87;;;;;;;15.26;100.00;99857.69;5024744;28;20217;-57
2022/04/29 04:04:22;;;;;;;16.60;13.63;;;;;;;15.52;100.00;99882.75;5024987;28;20224;-58
2022/04/29 04:06:52;;;;;;;15.20;12.33;;;;;;;15.58;100.00;99878.13;5024634;28;20718;-58
2022/04/29 04:09:20;;;;;;;13.73;12.33;;;;;;;15.57;100.00;99883.44;5025457;28;20224;-58
2022/04/29 04:11:49;;;;;;;14.13;12.57;;;;;;;15.66;100.00;99888.28;5025478;28;20774;-58
2022/04/29 04:14:18;;;;;;;22.60;12.67;;;;;;;15.86;100.00;99884.78;5025919;28;20239;-58
2022/04/29 04:16:45;;;;;;;14.40;12.10;;;;;;;16.56;100.00;99892.88;5025910;28;20563;-57
2022/04/29 04:19:12;;;;;;;14.67;13.07;;;;;;;17.26;100.00;99894.72;5025583;28;20288;-58
2022/04/29 04:21:39;;;;;;;13.83;12.33;;;;;;;17.76;99.17;99893.94;5023808;28;20695;-55
2022/04/29 04:24:08;;;;;;;17.13;11.73;;;;;;;17.97;96.46;99900.69;5026451;28;20201;-56
2022/04/29 04:26:35;;;;;;;12.67;11.47;;;;;;;17.97;94.66;99902.47;5009443;28;20241;-55
2022/04/29 04:29:03;;;;;;;15.07;12.03;;;;;;;17.87;95.27;99907.34;5024063;28;20270;-55
2022/04/29 04:31:30;;;;;;;14.60;13.10;;;;;;;17.55;96.93;99905.50;5025654;28;20236;-56
2022/04/29 04:33:57;;;;;;;17.47;12.90;;;;;;;17.22;99.11;99897.56;5025826;28;20729;-56
2022/04/29 04:36:24;;;;;;;15.07;13.47;;;;;;;17.05;100.00;99901.88;5024794;28;20221;-56
2022/04/29 04:38:51;;;;;;;14.77;12.37;;;;;;;17.08;100.00;99903.50;5044218;28;20654;-55
2022/04/29 04:41:18;;;;;;;13.43;12.33;;;;;;;17.14;99.69;99900.59;5048830;28;20307;-56
2022/04/29 04:43:45;;;;;;;15.13;13.07;;;;;;;17.06;99.49;99893.06;5049171;28;20308;-56
2022/04/29 04:46:14;;;;;;;14.00;12.70;;;;;;;17.04;99.49;99900.16;5048776;28;20232;-56
2022/04/29 04:48:41;;;;;;;19.90;12.80;;;;;;;16.92;99.36;99899.94;5049368;28;20220;-56
2022/04/29 04:51:08;;;;;;;14.43;13.10;;;;;;;16.96;98.87;99906.72;5048470;28;20598;-56
2022/04/29 04:53:35;;;;;;;18.10;13.20;;;;;;;17.16;97.85;99909.19;5048867;28;20315;-56
2022/04/29 04:56:05;;;;;;;13.30;12.07;;;;;;;18.57;90.34;99911.44;5021402;28;20261;-56
2022/04/29 04:58:33;;;;;;;13.50;12.10;;;;;;;19.01;86.41;99903.72;5014049;28;20304;-56
2022/04/29 05:01:00;;;;;;;13.32;12.13;;;;;;;19.51;83.98;99913.97;5009194;28;20687;-56
2022/04/29 05:03:29;;;;;;;12.88;11.73;;;;;;;19.84;81.53;99911.09;5013195;28;20227;-56
2022/04/29 05:05:56;;;;;;;13.48;11.95;;;;;;;20.91;76.52;99909.66;5013470;28;20251;-56
2022/04/29 05:08:23;;;;;;;15.88;12.68;;;;;;;22.00;73.30;99915.53;5033697;28;20326;-57
2022/04/29 05:10:50;;;;;;;12.48;11.20;;;;;;;22.11;70.39;99922.69;5048653;28;20225;-56
2022/04/29 05:13:17;;;;;;;13.20;12.02;;;;;;;22.34;68.73;99929.88;5048535;28;20275;-56
2022/04/29 05:15:44;;;;;;;12.88;11.68;;;;;;;21.90;69.69;99926.78;5009543;28;20728;-55
2022/04/29 05:18:11;;;;;;;13.40;12.15;;;;;;;21.43;71.66;99928.22;5010287;28;20240;-54
2022/04/29 05:20:39;;;;;;;14.05;12.63;;;;;;;20.90;73.90;99924.63;5009676;28;20206;-54
2022/04/29 05:23:06;;;;;;;12.40;11.20;;;;;;;20.36;75.80;99923.72;5009527;28;20293;-53
2022/04/29 05:25:35;;;;;;;15.85;12.80;;;;;;;20.27;76.58;99919.84;5008990;28;20240;-54
2022/04/29 05:28:02;;;;;;;15.73;12.38;;;;;;;19.81;77.50;99927.09;5009369;28;20202;-54
2022/04/29 05:30:31;;;;;;;14.30;12.85;;;;;;;19.00;80.82;99927.47;5009481;28;20201;-55
2022/04/29 05:32:58;;;;;;;14.18;12.73;;;;;;;18.67;82.93;99931.06;5029930;28;20590;-55
2022/04/29 05:35:26;;;;;;;14.95;12.93;;;;;;;18.54;83.87;99924.75;5029404;28;20223;-54
2022/04/29 05:37:55;;;;;;;14.85;13.40;;;;;;;18.24;85.93;99926.41;5029572;28;20204;-54
2022/04/29 05:43:07;;;;;;;14.73;13.33;;;;;;;17.95;85.29;99936.69;5025717;28;20201;-55
2022/04/29 05:45:34;;;;;;;15.10;13.70;;;;;;;17.80;86.11;99929.63;5009664;28;20210;-55
2022/04/29 05:48:01;;;;;;;15.77;14.20;;;;;;;17.75;86.30;99921.13;5009472;28;20206;-55
2022/04/29 05:50:28;;;;;;;17.53;15.80;;;;;;;17.70;85.94;99931.03;5008488;28;20208;-55
2022/04/29 05:52:57;;;;;;;15.20;13.77;;;;;;;17.75;86.11;99926.38;5008931;28;20202;-55
2022/04/29 05:55:24;;;;;;;16.60;14.90;;;;;;;17.78;85.72;99929.69;5009304;28;20217;-56
2022/04/29 05:57:51;;;;;;;15.17;13.60;;;;;;;17.76;86.18;99931.53;5009675;28;20202;-58
2022/04/29 06:00:19;;;;;;;14.67;13.13;;;;;;;17.91;85.57;99935.16;5009641;28;20198;-58
2022/04/29 06:02:47;;;;;;;21.27;14.50;;;;;;;17.90;86.63;99943.13;5009663;28;20213;-58
2022/04/29 06:05:14;;;;;;;15.47;13.77;;;;;;;17.92;85.66;99942.13;5009298;28;20673;-57
2022/04/29 06:07:41;;;;;;;16.83;13.77;;;;;;;17.77;86.82;99945.53;5009665;28;20198;-58
2022/04/29 06:10:10;;;;;;;14.60;13.10;;;;;;;17.76;86.87;99941.19;5009410;28;20199;-58
2022/04/29 06:12:39;;;;;;;16.03;13.13;;;;;;;17.86;86.51;99947.66;5009525;28;20200;-58
2022/04/29 06:15:07;;;;;;;15.77;14.13;;;;;;;17.85;86.48;99945.97;5009205;28;20225;-58
2022/04/29 06:17:34;;;;;;;15.33;13.83;;;;;;;17.92;85.48;99946.50;5009145;28;20208;-58
2022/04/29 06:20:01;;;;;;;15.50;13.90;;;;;;;17.93;85.39;99948.22;5009277;28;20206;-58
2022/04/29 06:22:28;;;;;;;15.00;13.60;;;;;;;18.00;85.75;99942.56;5008915;28;20233;-54
2022/04/29 06:24:55;;;;;;;15.57;14.07;;;;;;;18.01;85.93;99943.41;5009644;27;20309;-57
2022/04/29 06:27:23;;;;;;;15.83;14.27;;;;;;;17.91;86.44;99944.81;5039623;27;20194;-54
2022/04/29 06:29:50;;;;;;;17.10;14.93;;;;;;;17.80;85.79;99944.53;5019889;28;20735;-53
2022/04/29 06:32:17;;;;;;;16.10;14.43;;;;;;;17.71;86.60;99954.56;5028568;28;20208;-53
2022/04/29 06:34:44;;;;;;;17.97;14.90;;;;;;;17.67;87.13;99944.31;5028089;28;20293;-54
2022/04/29 06:37:11;;;;;;;16.10;14.37;;;;;;;17.89;85.84;99951.91;5024016;28;20197;-53
2022/04/29 06:39:38;;;;;;;17.30;14.93;;;;;;;17.92;86.48;99954.41;5020952;28;20201;-54
2022/04/29 06:42:05;;;;;;;18.13;14.97;;;;;;;18.07;85.03;99950.94;5027884;28;20202;-54
2022/04/29 06:44:34;;;;;;;17.43;14.90;;;;;;;17.94;85.36;99948.13;5027881;28;20208;-58
2022/04/29 06:47:00;;;;;;;17.70;15.80;;;;;;;17.86;84.59;99947.66;5027736;28;20231;-57
2022/04/29 06:49:28;;;;;;;21.90;17.10;;;;;;;17.83;85.33;99958.34;5027864;28;20201;-58
2022/04/29 06:51:55;;;;;;;19.27;15.93;;;;;;;17.83;85.12;99947.00;5027749;28;20198;-57
2022/04/29 06:54:21;;;;;;;20.30;16.13;;;;;;;17.88;85.27;99950.22;5026206;28;20293;-58
2022/04/29 06:56:48;;;;;;;17.37;15.17;;;;;;;17.85;85.05;99951.22;5026759;28;20612;-57
2022/04/29 06:59:15;;;;;;;14.47;13.13;;;;;;;17.90;84.58;99954.47;5026671;28;20198;-56
2022/04/29 07:01:44;;;;;;;15.40;13.80;;;;;;;17.89;84.09;99951.91;5027167;28;20218;-58
2022/04/29 07:04:11;;;;;;;17.03;13.80;;;;;;;18.12;83.89;99955.03;5027487;28;20212;-58
2022/04/29 07:06:38;;;;;;;15.00;13.40;;;;;;;18.32;82.65;99947.88;5027532;28;20284;-54
2022/04/29 07:09:05;;;;;;;17.00;14.17;;;;;;;18.36;82.69;99950.25;5027457;28;20199;-57
2022/04/29 07:11:32;;;;;;;15.27;13.53;;;;;;;18.26;82.81;99956.09;5027362;28;20292;-57
2022/04/29 07:13:59;;;;;;;14.53;13.00;;;;;;;18.48;82.06;99954.00;5027492;28;20223;-56
2022/04/29 07:16:26;;;;;;;14.93;13.53;;;;;;;18.63;81.83;99950.56;5027570;28;20221;-58
2022/04/29 07:18:54;;;;;;;15.80;13.83;;;;;;;18.80;81.38;99952.28;5027583;28;20591;-58
2022/04/29 07:21:21;;;;;;;14.52;13.20;;;;;;;18.80;80.36;99950.50;5027300;28;20199;-57
2022/04/29 07:23:48;;;;;;;15.60;13.25;;;;;;;18.84;80.14;99954.66;5027493;28;20658;-57
2022/04/29 07:26:15;;;;;;;15.40;13.77;;;;;;;18.89;79.58;99941.22;5027243;28;20797;-54
2022/04/29 07:28:42;;;;;;;15.10;13.60;;;;;;;18.92;79.50;99959.47;5027216;28;20208;-54
2022/04/29 07:31:11;;;;;;;16.10;13.43;;;;;;;18.82;79.52;99960.94;5027186;28;20197;-57
2022/04/29 07:33:38;;;;;;;16.20;14.50;;;;;;;19.16;79.05;99970.41;5027354;28;20744;-57
2022/04/29 07:41:48;;;;;;;17.98;13.18;;;;;;;19.79;76.84;99965.00;5027141;28;20230;-55
2022/04/29 07:44:16;;;;;;;14.65;13.10;;;;;;;20.26;74.68;99960.34;5026846;28;20232;-54
2022/04/29 07:46:45;;;;;;;13.93;12.63;;;;;;;20.48;72.34;99946.69;5027042;28;20197;-54
2022/04/29 07:49:13;;;;;;;15.07;13.55;;;;;;;20.80;72.31;99967.53;5026861;28;20221;-54
2022/04/29 07:51:42;;;;;;;14.88;13.38;;;;;;;21.18;69.89;99965.97;5027347;28;20201;-54
2022/04/29 07:54:09;;;;;;;14.93;12.70;;;;;;;21.32;69.27;99943.94;5027102;28;20587;-55
2022/04/29 07:56:37;;;;;;;13.93;12.50;;;;;;;21.59;69.66;99965.00;5026875;28;20315;-55
2022/04/29 07:59:04;;;;;;;15.60;14.00;;;;;;;21.61;67.98;99968.41;5026853;28;20197;-54
2022/04/29 08:01:33;;;;;;;14.70;13.13;;;;;;;21.78;68.83;99964.63;5027010;28;20701;-54
2022/04/29 08:04:01;;;;;;;13.93;12.52;;;;;;;21.86;67.55;99957.03;5026752;28;20220;-54
2022/04/29 08:06:28;;;;;;;13.48;12.38;;;;;;;22.30;67.39;99959.28;5026779;28;20284;-55
2022/04/29 08:08:56;;;;;;;13.30;12.10;;;;;;;23.69;61.31;99944.69;5026641;28;20203;-55
2022/04/29 08:11:24;;;;;;;13.32;12.07;;;;;;;24.87;57.89;99956.53;5026579;28;20193;-55
2022/04/29 08:13:51;;;;;;;13.32;12.13;;;;;;;25.63;56.06;99963.56;5029000;28;20208;-53
2022/04/29 08:16:18;;;;;;;13.55;12.07;;;;;;;26.50;52.79;99961.41;5030672;28;20281;-55
2022/04/29 08:18:46;;;;;;;14.00;12.63;;;;;;;26.76;51.28;99967.91;5030298;28;20646;-54
2022/04/29 08:21:13;;;;;;;13.68;12.02;;;;;;;26.29;52.17;99957.97;5030081;28;20243;-54
2022/04/29 08:23:40;;;;;;;11.93;10.80;;;;;;;25.16;54.48;99956.88;5030115;28;20284;-53
2022/04/29 08:26:08;;;;;;;13.30;12.13;;;;;;;24.29;58.01;99962.13;5029915;28;20230;-54
2022/04/29 08:28:35;;;;;;;13.68;12.27;;;;;;;24.02;59.15;99962.47;5030114;28;20629;-53
2022/04/29 08:31:02;;;;;;;13.48;12.27;;;;;;;24.04;60.25;99960.56;5016090;28;20198;-54
2022/04/29 08:33:30;;;;;;;12.48;11.20;;;;;;;24.30;59.37;99951.41;5009473;28;20197;-53
2022/04/29 08:35:57;;;;;;;12.32;11.32;;;;;;;25.27;56.79;99954.16;5009413;28;20230;-53
2022/04/29 08:38:25;;;;;;;14.15;11.70;;;;;;;26.62;52.55;99959.50;5009312;28;20225;-54
2022/04/29 08:40:52;;;;;;;11.50;10.50;;;;;;;27.06;50.41;99966.22;5009352;28;20589;-54
2022/04/29 08:43:22;;;;;;;12.13;11.13;;;;;;;26.94;50.30;99967.31;5009153;28;20597;-54
2022/04/29 08:45:49;;;;;;;12.25;11.10;;;;;;;25.99;52.25;99951.59;5009113;28;20198;-54
2022/04/29 08:48:18;;;;;;;12.75;10.48;;;;;;;25.10;55.09;99943.22;5009002;28;20202;-55
2022/04/29 08:50:45;;;;;;;11.27;10.10;;;;;;;25.10;55.56;99946.72;5009561;28;20571;-54
2022/04/29 08:53:13;;;;;;;11.50;10.50;;;;;;;24.73;56.22;99935.56;5009102;28;20238;-54
2022/04/29 08:58:38;;;;;;;12.20;11.20;;;;;;;24.90;55.05;99935.06;5008941;28;20258;-54
2022/04/29 09:01:08;;;;;;;12.40;11.18;;;;;;;24.82;55.86;99926.03;5008964;28;20198;-55
2022/04/29 09:03:35;;;;;;;13.75;11.65;;;;;;;24.72;56.14;99928.56;5008879;28;20197;-54
2022/04/29 09:06:03;;;;;;;11.85;10.85;;;;;;;24.81;55.00;99932.31;5009180;28;20680;-54
2022/04/29 09:08:33;;;;;;;12.57;11.43;;;;;;;24.78;54.90;99922.78;5008698;28;20224;-55
2022/04/29 09:11:01;;;;;;;11.85;10.82;;;;;;;24.81;54.97;99927.00;5009297;28;20223;-54
2022/04/29 09:13:30;;;;;;;12.27;11.05;;;;;;;24.24;56.77;99920.06;5008642;28;20204;-54
2022/04/29 09:15:59;;;;;;;12.00;11.02;;;;;;;24.50;56.27;99905.56;5008661;28;20313;-54
2022/04/29 09:18:32;;;;;;;12.07;11.07;;;;;;;24.82;55.60;99918.06;5008606;28;20241;-54
2022/04/29 09:20:59;;;;;;;11.18;10.15;;;;;;;24.81;55.02;99929.66;5008480;28;20331;-54
2022/04/29 09:23:28;;;;;;;10.85;9.95;;;;;;;24.90;54.80;99912.97;5008682;28;20202;-54
2022/04/29 09:25:56;;;;;;;12.65;11.25;;;;;;;25.01;55.25;99899.69;5025142;28;20229;-54
2022/04/29 09:28:24;;;;;;;12.57;11.27;;;;;;;25.05;54.13;99901.13;5028201;28;20193;-54
2022/04/29 09:30:56;;;;;;;12.57;11.35;;;;;;;24.78;54.94;99912.16;5028241;28;20674;-54
2022/04/29 09:33:25;;;;;;;12.52;10.98;;;;;;;24.79;55.38;99905.88;5028030;28;20205;-54
2022/04/29 09:35:53;;;;;;;12.35;11.27;;;;;;;25.15;54.97;99912.66;5027924;28;20221;-57
2022/04/29 09:41:06;;;;;;;13.00;11.45;;;;;;;26.19;52.15;99907.31;5019412;28;20216;-58
2022/04/29 09:43:38;;;;;;;13.75;10.48;;;;;;;27.05;49.71;99914.75;5008270;28;20202;-57
2022/04/29 09:46:19;;;;;;;10.93;10.02;;;;;;;26.97;48.11;99913.75;5008246;28;20205;-58
2022/04/29 09:48:58;;;;;;;11.07;10.05;;;;;;;27.28;48.46;99901.13;5008306;28;20198;-57
2022/04/29 09:51:42;;;;;;;10.85;9.95;;;;;;;27.23;47.78;99912.19;5008067;28;20198;-57
2022/04/29 09:54:11;;;;;;;11.75;10.85;;;;;;;26.49;49.30;99910.97;5008048;28;20205;-58
2022/04/29 09:56:39;;;;;;;11.25;10.35;;;;;;;25.37;51.80;99910.88;5007927;28;20261;-57
2022/04/29 09:59:07;;;;;;;11.15;10.13;;;;;;;24.73;53.72;99900.19;5007996;28;20202;-57
2022/04/29 10:01:36;;;;;;;11.30;10.25;;;;;;;24.11;56.17;99887.50;5008297;28;20198;-57
2022/04/29 10:04:03;;;;;;;11.23;10.27;;;;;;;24.03;56.54;99889.91;5008078;28;20290;-57
2022/04/29 10:06:33;;;;;;;12.60;11.60;;;;;;;23.63;58.08;99898.28;5014131;28;20225;-58
2022/04/29 10:09:00;;;;;;;15.52;11.68;;;;;;;23.24;59.08;99890.69;5021213;28;20201;-58
2022/04/29 10:11:29;;;;;;;12.55;11.23;;;;;;;23.04;60.36;99890.34;5028459;28;20197;-57
2022/04/29 10:14:01;;;;;;;12.45;11.32;;;;;;;23.14;60.02;99886.06;5028315;28;20202;-58
2022/04/29 10:16:33;;;;;;;12.50;11.30;;;;;;;23.34;59.24;99884.59;5019391;28;20703;-58
2022/04/29 10:21:50;;;;;;;11.82;10.73;;;;;;;23.26;59.39;99880.81;5018628;28;20208;-58
2022/04/29 10:24:18;;;;;;;12.90;11.10;;;;;;;22.73;62.55;99873.22;5013393;28;20675;-54
2022/04/29 10:26:48;;;;;;;13.02;11.77;;;;;;;22.39;63.24;99874.81;5008449;28;20194;-54
2022/04/29 10:29:15;;;;;;;10.93;10.13;;;;;;;22.34;63.20;99868.19;5008318;28;20292;-54
2022/04/29 10:31:43;;;;;;;12.18;10.93;;;;;;;22.40;63.31;99871.22;5008367;28;20206;-54
2022/04/29 10:34:31;;;;;;;12.48;11.30;;;;;;;22.70;63.18;99865.50;5010659;28;20198;-53
2022/04/29 10:36:59;;;;;;;12.77;11.63;;;;;;;22.79;62.36;99864.03;5008111;28;20252;-54
2022/04/29 10:39:26;;;;;;;13.77;11.60;;;;;;;22.62;63.07;99877.59;5008367;28;20582;-54
2022/04/29 10:42:00;;;;;;;11.88;10.65;;;;;;;22.84;62.01;99864.53;5008327;28;20197;-54
2022/04/29 10:44:27;;;;;;;11.98;10.98;;;;;;;22.90;61.49;99850.00;5007978;28;20254;-54
2022/04/29 10:46:54;;;;;;;12.48;10.90;;;;;;;23.26;60.54;99863.09;5008415;28;20202;-54
2022/04/29 10:49:23;;;;;;;11.20;10.20;;;;;;;23.40;58.80;99849.66;5008288;28;20259;-54
2022/04/29 10:51:52;;;;;;;12.05;10.90;;;;;;;23.85;58.79;99858.56;5008221;28;20209;-54
2022/04/29 10:54:45;;;;;;;13.82;11.27;;;;;;;23.83;58.85;99851.66;5010542;28;20267;-54
2022/04/29 10:57:14;;;;;;;11.32;10.35;;;;;;;23.53;58.92;99863.69;5007928;28;20218;-55
2022/04/29 10:59:52;;;;;;;11.95;10.95;;;;;;;23.22;59.29;99860.81;5008306;28;20201;-55
2022/04/29 11:02:27;;;;;;;11.70;10.60;;;;;;;23.27;58.88;99856.00;5007879;28;20204;-55
2022/04/29 11:04:55;;;;;;;12.52;11.43;;;;;;;23.45;59.18;99850.16;5007897;28;20258;-54
2022/04/29 11:07:43;;;;;;;12.20;11.10;;;;;;;23.41;58.82;99861.97;5007726;28;20194;-53
2022/04/29 11:10:12;;;;;;;11.13;10.23;;;;;;;23.16;59.31;99851.53;5008123;28;20198;-54
2022/04/29 11:12:40;;;;;;;11.77;10.65;;;;;;;23.04;59.99;99845.34;5007957;28;20202;-53
2022/04/29 11:15:13;;;;;;;10.50;9.57;;;;;;;23.03;59.19;99841.00;5007999;28;20201;-57
2022/04/29 11:17:41;;;;;;;28.27;25.23;;;;;;;23.17;59.24;99843.47;5007688;28;20316;-58
2022/04/29 11:20:21;;;;;;;11.10;10.13;;;;;;;23.01;58.39;99840.31;5017521;28;20201;-57
2022/04/29 11:25:54;;;;;;;9.75;8.93;;;;;;;22.86;57.84;99830.84;5018486;28;20378;-57
2022/04/29 11:28:21;;;;;;;11.25;10.15;;;;;;;23.09;58.70;99834.41;5015936;28;20721;-58
2022/04/29 11:30:50;;;;;;;16.52;14.88;;;;;;;23.44;58.42;99829.09;5016881;28;20284;-58
2022/04/29 11:33:27;;;;;;;11.63;9.45;;;;;;;23.61;57.39;99828.66;5017678;28;20194;-57
2022/04/29 11:36:01;;;;;;;10.25;9.30;;;;;;;23.36;56.95;99834.16;5025994;28;20197;-57
2022/04/29 11:38:31;;;;;;;10.15;9.18;;;;;;;23.20;57.14;99823.00;5026924;28;20200;-57